Aérodrome :
LOGIN :

S'inscrire | Disclaimer

   EN    FR    IT 

 










Légende :    VFR   VFR Marginal   IFR   IFR Intensif   IFR Très Intensif
Visi : 
Plafond : 
>= 8 km
>= 3000ft
5 à 8 km
1000 à 3000 ft
1500m à 5 km
500 à 1000 ft
800 à 1500m
200 à 500 ft
< 800m
< 200 ft
Symboles :   Orages  Brouillard  Fortes neiges  Fortes précipitations  Vent > 20 kt
SIGMETs :   Divers  Orages  Givrage  Turbulence  Onde Orograph.  Cendres Volcan.






- Altitude de l'aérodrome : 1090 ft
- Code IATA : CFE


LFLC - Clermont-Ferrand Auvergne

DERNIER METAR :
  • 201130Z AUTO 17009KT CAVOK 12/03 Q1023 NOSIG

METARs EXPIRÉS :
  • 201100Z AUTO 18007KT 140V210 CAVOK 11/03 Q1023 NOSIG
  • 201030Z AUTO 16006KT 130V210 CAVOK 10/03 Q1023 NOSIG
  • 201000Z AUTO 18007KT 150V210 CAVOK 09/03 Q1023 NOSIG
  • 200930Z AUTO 16004KT 130V200 CAVOK 08/03 Q1023 NOSIG
  • 200900Z AUTO 18003KT 150V230 CAVOK 06/02 Q1024 NOSIG

TAF TAF LFLC
Valide du 20 à 09h jusqu'au 21 à 09h UTC


200800Z 2009/2109 VRB02KT CAVOK
BECMG 2014/2016 27012KT
TEMPO 2019/2024 27015G25KT SCT050
TEMPO 2100/2102 36015G25KT -RA BKN030
ATIS : +33 4 73 62 74 38



MET'MAP, la Météo Aéronautique d'un coup d'oeil ! - Copyright ORBIFLY Décembre 2007 - Disclaimer

ORBIFLY MET'MAP TEAM :

Programmation & Développement : Alexandra Zaïnal
Sur une idée originale de : Baudouin d'Aumeries
Assistance à la programmation : Marc-Olivier Méhu
Soutien technique & logistique : Manuel Goepfert

Contact : metmap@orbifly.com




SOURCES & CREDITS :

   NOAA